| time (UTC) | temp F | wind direction | speed MPH | gust MPH | rain 1hr in | rain 24hr in | rain mn in | humidity % | barometer mb |
| 20260508141543 | 67 | 64 | 1.0 | 8.0 | 0.00 | 0.13 | 0.00 | 67 | 1018.7 |
| 20260508140051 | 66 | 64 | 2.0 | 9.0 | 0.00 | 0.13 | 0.00 | 69 | 1018.5 |
| 20260508134611 | 65 | 15 | 1.0 | 9.0 | 0.00 | 0.14 | 0.00 | 73 | 1018.6 |
| 20260508133056 | 63 | 360 | 1.0 | 5.0 | 0.00 | 0.14 | 0.00 | 75 | 1018.6 |
| 20260508131550 | 62 | 360 | 0.0 | 4.0 | 0.00 | 0.14 | 0.00 | 76 | 1018.6 |
| 20260508130046 | 61 | 360 | 1.0 | 4.0 | 0.00 | 0.14 | 0.00 | 77 | 1018.5 |
| 20260508124555 | 60 | 360 | 1.0 | 3.0 | 0.00 | 0.17 | 0.00 | 78 | 1018.1 |
| 20260508123052 | 60 | 0 | 1.0 | 4.0 | 0.00 | 0.17 | 0.00 | 80 | 1018.5 |
| 20260508121548 | 59 | 360 | 3.0 | 6.0 | 0.00 | 0.17 | 0.00 | 82 | 1018.1 |
| 20260508120048 | 58 | 360 | 2.0 | 5.0 | 0.00 | 0.17 | 0.00 | 84 | 1018.1 |
| 20260508114546 | 57 | 360 | 1.0 | 4.0 | 0.00 | 0.42 | 0.00 | 86 | 1017.9 |
| 20260508113042 | 57 | 0 | 0.0 | 0.0 | 0.00 | 0.42 | 0.00 | 87 | 1017.5 |
| 20260508111551 | 56 | 0 | 0.0 | 0.0 | 0.00 | 0.42 | 0.00 | 87 | 1017.1 |
| 20260508110049 | 56 | 0 | 0.0 | 0.0 | 0.00 | 0.42 | 0.00 | 88 | 1016.9 |
| 20260508104548 | 56 | 0 | 0.0 | 3.0 | 0.00 | 0.54 | 0.00 | 87 | 1016.3 |
| 20260508103044 | 56 | 360 | 1.0 | 3.0 | 0.00 | 0.54 | 0.00 | 86 | 1016.4 |
| 20260508101543 | 57 | 360 | 2.0 | 4.0 | 0.00 | 0.54 | 0.00 | 85 | 1016.0 |
| 20260508100106 | 58 | 360 | 2.0 | 5.0 | 0.00 | 0.54 | 0.00 | 85 | 1015.7 |
| 20260508094601 | 58 | 0 | 1.0 | 4.0 | 0.00 | 0.57 | 0.00 | 84 | 1015.7 |
| 20260508093047 | 58 | 360 | 1.0 | 4.0 | 0.00 | 0.57 | 0.00 | 83 | 1015.6 |
| 20260508091603 | 58 | 0 | 1.0 | 3.0 | 0.00 | 0.57 | 0.00 | 83 | 1015.6 |
| 20260508090113 | 58 | 360 | 0.0 | 3.0 | 0.00 | 0.57 | 0.00 | 83 | 1015.4 |
| 20260508084550 | 58 | 360 | 0.0 | 3.0 | 0.00 | 0.57 | 0.00 | 82 | 1015.5 |
| 20260508083047 | 59 | 360 | 2.0 | 4.0 | 0.00 | 0.57 | 0.00 | 81 | 1015.3 |
| 20260508081602 | 59 | 360 | 2.0 | 5.0 | 0.00 | 0.57 | 0.00 | 80 | 1015.3 |
| 20260508080042 | 60 | 360 | 2.0 | 5.0 | 0.00 | 0.57 | 0.00 | 81 | 1015.1 |
| 20260508074547 | 60 | 360 | 3.0 | 6.0 | 0.00 | 0.62 | 0.00 | 81 | 1014.7 |
| 20260508073104 | 60 | 360 | 3.0 | 5.0 | 0.00 | 0.62 | 0.00 | 81 | 1014.9 |
| 20260508071547 | 60 | 360 | 2.0 | 10.0 | 0.00 | 0.62 | 0.00 | 82 | 1014.9 |
| 20260508070049 | 60 | 360 | 3.0 | 6.0 | 0.00 | 0.62 | 0.00 | 83 | 1014.9 |
| 20260508064549 | 60 | 360 | 3.0 | 9.0 | 0.00 | 0.89 | 0.00 | 83 | 1014.8 |
| 20260508063054 | 61 | 360 | 4.0 | 10.0 | 0.00 | 0.89 | 0.00 | 82 | 1015.1 |
| 20260508061554 | 61 | 360 | 4.0 | 11.0 | 0.00 | 0.89 | 0.00 | 83 | 1015.6 |
| 20260508054543 | 61 | 360 | 3.0 | 9.0 | 0.00 | 1.24 | 0.00 | 83 | 1015.6 |
| 20260508053042 | 62 | 360 | 2.0 | 9.0 | 0.00 | 1.24 | 0.00 | 84 | 1015.7 |
| 20260508051559 | 62 | 360 | 4.0 | 10.0 | 0.00 | 1.24 | 0.00 | 84 | 1015.9 |
| 20260508050047 | 62 | 360 | 3.0 | 9.0 | 0.00 | 1.24 | 0.00 | 85 | 1015.7 |
| 20260508044550 | 62 | 360 | 3.0 | 6.0 | 0.00 | 1.43 | 0.00 | 85 | 1015.9 |
| 20260508043046 | 63 | 360 | 3.0 | 6.0 | 0.00 | 1.43 | 0.00 | 84 | 1015.8 |
| 20260508041551 | 63 | 360 | 3.0 | 6.0 | 0.00 | 1.43 | 0.00 | 84 | 1015.8 |
| 20260508040056 | 63 | 360 | 3.0 | 8.0 | 0.00 | 1.43 | 0.00 | 84 | 1015.8 |
| 20260508034551 | 64 | 360 | 2.0 | 6.0 | 0.00 | 1.64 | 1.43 | 84 | 1015.7 |
| 20260508033056 | 64 | 360 | 3.0 | 5.0 | 0.00 | 1.64 | 1.43 | 84 | 1015.7 |
| 20260508031555 | 65 | 360 | 2.0 | 4.0 | 0.00 | 1.64 | 1.43 | 85 | 1015.7 |
| 20260508030047 | 65 | 360 | 1.0 | 5.0 | 0.00 | 1.64 | 1.43 | 84 | 1015.5 |
| 20260508024610 | 66 | 360 | 3.0 | 6.0 | 0.00 | 1.84 | 1.43 | 83 | 1015.3 |
| 20260508023049 | 66 | 360 | 4.0 | 9.0 | 0.00 | 1.84 | 1.43 | 83 | 1015.1 |
| 20260508021555 | 67 | 360 | 4.0 | 10.0 | 0.00 | 1.84 | 1.43 | 82 | 1015.1 |
| 20260508020053 | 67 | 360 | 3.0 | 6.0 | 0.00 | 1.84 | 1.43 | 83 | 1014.9 |
| 20260508014552 | 68 | 360 | 3.0 | 6.0 | 0.00 | 1.86 | 1.43 | 83 | 1014.7 |
| 20260508013045 | 68 | 360 | 1.0 | 4.0 | 0.00 | 1.86 | 1.43 | 83 | 1014.6 |
| 20260508011816 | 69 | 360 | 3.0 | 6.0 | 0.00 | 1.86 | 1.43 | 82 | 1014.3 |
| 20260508011557 | 69 | 360 | 3.0 | 6.0 | 0.00 | 1.86 | 1.43 | 82 | 1014.3 |
| 20260508010054 | 69 | 360 | 3.0 | 6.0 | 0.00 | 1.86 | 1.43 | 82 | 1014.2 |
| 20260508004554 | 70 | 360 | 2.0 | 6.0 | 0.00 | 1.86 | 1.43 | 81 | 1014.1 |
| 20260508003048 | 71 | 360 | 2.0 | 5.0 | 0.00 | 1.86 | 1.43 | 80 | 1013.9 |
| 20260508001550 | 72 | 360 | 1.0 | 5.0 | 0.00 | 1.86 | 1.43 | 78 | 1013.8 |
| 20260508000048 | 72 | 360 | 1.0 | 5.0 | 0.00 | 1.86 | 1.43 | 76 | 1013.4 |
| 20260507234542 | 73 | 360 | 3.0 | 9.0 | 0.00 | 1.86 | 1.43 | 74 | 1013.2 |
| 20260507233053 | 74 | 360 | 0.0 | 6.0 | 0.00 | 1.86 | 1.43 | 73 | 1013.2 |
| 20260507231549 | 75 | 306 | 2.0 | 8.0 | 0.00 | 1.86 | 1.43 | 72 | 1013.0 |
| 20260507230105 | 75 | 0 | 0.0 | 7.0 | 0.00 | 1.86 | 1.43 | 71 | 1013.1 |
| 20260507224552 | 76 | 332 | 4.0 | 11.0 | 0.00 | 1.86 | 1.43 | 69 | 1013.1 |
| 20260507223045 | 77 | 284 | 1.0 | 9.0 | 0.00 | 1.86 | 1.43 | 70 | 1013.0 |
| 20260507221545 | 77 | 0 | 1.0 | 9.0 | 0.00 | 1.86 | 1.43 | 69 | 1012.5 |
| 20260507220054 | 78 | 325 | 5.0 | 16.0 | 0.00 | 1.86 | 1.43 | 67 | 1012.6 |
| 20260507214546 | 79 | 299 | 1.0 | 12.0 | 0.00 | 1.86 | 1.43 | 68 | 1012.5 |
| 20260507213047 | 79 | 321 | 6.0 | 16.0 | 0.00 | 1.86 | 1.43 | 68 | 1012.6 |
| 20260507211546 | 79 | 303 | 4.0 | 11.0 | 0.00 | 1.86 | 1.43 | 69 | 1012.7 |
| 20260507210053 | 78 | 324 | 4.0 | 13.0 | 0.00 | 1.86 | 1.43 | 73 | 1012.7 |
| 20260507204542 | 76 | 341 | 3.0 | 10.0 | 0.00 | 1.86 | 1.43 | 77 | 1012.6 |
| 20260507203114 | 77 | 317 | 4.0 | 11.0 | 0.00 | 1.86 | 1.43 | 73 | 1012.4 |
| 20260507201551 | 79 | 228 | 2.0 | 12.0 | 0.00 | 1.86 | 1.43 | 72 | 1012.4 |
| 20260507200046 | 76 | 336 | 7.0 | 14.0 | 0.00 | 1.86 | 1.43 | 77 | 1012.7 |
| 20260507194558 | 76 | 352 | 5.0 | 13.0 | 0.00 | 1.86 | 1.43 | 77 | 1012.9 |
| 20260507193044 | 75 | 328 | 2.0 | 10.0 | 0.00 | 1.86 | 1.43 | 80 | 1012.9 |
| 20260507191545 | 74 | 322 | 2.0 | 6.0 | 0.00 | 1.86 | 1.43 | 82 | 1013.0 |
| 20260507190056 | 74 | 329 | 3.0 | 7.0 | 0.00 | 1.86 | 1.43 | 82 | 1013.0 |
| 20260507184551 | 74 | 344 | 1.0 | 8.0 | 0.00 | 1.86 | 1.43 | 84 | 1013.1 |
| 20260507183045 | 73 | 333 | 3.0 | 11.0 | 0.00 | 1.86 | 1.43 | 84 | 1013.0 |
| 20260507181547 | 73 | 360 | 2.0 | 8.0 | 0.00 | 1.86 | 1.43 | 86 | 1013.1 |
| 20260507180045 | 72 | 325 | 5.0 | 11.0 | 0.00 | 1.86 | 1.43 | 86 | 1013.1 |
| 20260507174550 | 73 | 290 | 3.0 | 9.0 | 0.00 | 1.86 | 1.43 | 86 | 1013.1 |
| 20260507173120 | 74 | 322 | 2.0 | 10.0 | 0.00 | 1.86 | 1.43 | 87 | 1013.0 |
| 20260507171546 | 72 | 325 | 2.0 | 9.0 | 0.00 | 1.86 | 1.43 | 90 | 1013.2 |
| 20260507170048 | 71 | 360 | 2.0 | 6.0 | 0.00 | 1.86 | 1.43 | 92 | 1013.6 |
| 20260507164546 | 70 | 315 | 4.0 | 9.0 | 0.01 | 1.86 | 1.43 | 92 | 1013.6 |
| 20260507163052 | 69 | 360 | 3.0 | 5.0 | 0.05 | 1.86 | 1.43 | 95 | 1013.4 |
| 20260507161551 | 68 | 360 | 4.0 | 10.0 | 0.10 | 1.86 | 1.43 | 96 | 1013.4 |
| 20260507160058 | 68 | 360 | 4.0 | 11.0 | 0.13 | 1.86 | 1.43 | 96 | 1013.2 |
| 20260507154548 | 68 | 360 | 4.0 | 11.0 | 0.11 | 1.84 | 1.41 | 97 | 1013.3 |
| 20260507153052 | 68 | 360 | 4.0 | 16.0 | 0.08 | 1.81 | 1.38 | 97 | 1013.0 |
| 20260507151544 | 71 | 360 | 1.0 | 4.0 | 0.03 | 1.76 | 1.33 | 97 | 1012.5 |
| 20260507150051 | 70 | 360 | 2.0 | 6.0 | 0.00 | 1.73 | 1.30 | 97 | 1012.2 |
| 20260507144558 | 70 | 360 | 1.0 | 12.0 | 0.00 | 1.73 | 1.30 | 97 | 1012.1 |
| 20260507143058 | 70 | 360 | 2.0 | 11.0 | 0.00 | 1.73 | 1.30 | 97 | 1012.1 |